createdAt,value
2024-03-12T00:00:40.113Z,10.30
2024-03-12T00:01:21.437Z,10.25
2024-03-12T00:02:37.304Z,9.05
2024-03-12T00:03:34.038Z,10.90
2024-03-12T00:04:14.788Z,9.88
2024-03-12T00:04:52.974Z,11.30
2024-03-12T00:05:31.279Z,9.45
2024-03-12T00:06:06.980Z,9.13
2024-03-12T00:06:43.614Z,9.43
2024-03-12T00:07:18.154Z,10.98
2024-03-12T00:07:54.820Z,10.27
2024-03-12T00:08:41.504Z,10.23
2024-03-12T00:09:13.910Z,11.20
2024-03-12T00:09:46.459Z,10.45
2024-03-12T00:10:21.048Z,11.57
2024-03-12T00:11:07.492Z,9.95
2024-03-12T00:11:57.164Z,10.35
2024-03-12T00:12:47.259Z,10.18
2024-03-12T00:13:36.717Z,9.50
2024-03-12T00:14:18.236Z,11.57
2024-03-12T00:14:53.345Z,11.20
2024-03-12T00:15:38.529Z,10.82
2024-03-12T00:16:19.020Z,10.45
2024-03-12T00:17:09.503Z,11.48
2024-03-12T00:17:54.180Z,10.85
2024-03-12T00:18:29.478Z,9.93
2024-03-12T00:19:02.563Z,10.00
2024-03-12T00:19:43.282Z,9.98
2024-03-12T00:20:40.643Z,10.65
2024-03-12T00:21:16.160Z,10.07
2024-03-12T00:21:51.120Z,10.57
2024-03-12T00:22:23.929Z,10.45
2024-03-12T00:23:07.952Z,10.35
2024-03-12T00:23:57.335Z,10.27
2024-03-12T00:24:30.134Z,11.00
2024-03-12T00:25:09.750Z,10.13
2024-03-12T00:25:48.427Z,11.38
2024-03-12T00:26:33.973Z,10.52
2024-03-12T00:27:07.346Z,10.10
2024-03-12T00:27:52.142Z,10.45
2024-03-12T00:28:27.793Z,10.82
2024-03-12T00:29:06.095Z,10.98
2024-03-12T00:29:41.199Z,10.73
2024-03-12T00:30:41.542Z,11.23
2024-03-12T00:31:56.955Z,10.63
2024-03-12T00:32:32.943Z,10.93
2024-03-12T00:33:15.927Z,11.02
2024-03-12T00:33:53.665Z,10.30
2024-03-12T00:34:35.693Z,10.10
2024-03-12T00:35:16.071Z,10.18
2024-03-12T00:36:31.932Z,10.70
2024-03-12T00:37:08.060Z,10.80
2024-03-12T00:37:42.726Z,9.80
2024-03-12T00:38:21.660Z,10.68
2024-03-12T00:38:56.417Z,10.00
2024-03-12T00:39:38.060Z,10.95
2024-03-12T00:40:15.364Z,11.10
2024-03-12T00:41:01.318Z,10.45
2024-03-12T00:41:39.431Z,11.18
2024-03-12T00:42:18.123Z,9.98
2024-03-12T00:43:07.513Z,10.60
2024-03-12T00:43:40.027Z,8.82
2024-03-12T00:44:15.078Z,10.43
2024-03-12T00:44:52.369Z,11.45
2024-03-12T00:45:40.521Z,10.30
2024-03-12T00:46:22.401Z,9.80
2024-03-12T00:46:58.376Z,10.43
2024-03-12T00:47:35.017Z,11.77
2024-03-12T00:48:19.452Z,10.23
2024-03-12T00:49:05.477Z,10.65
2024-03-12T00:49:40.121Z,10.50
2024-03-12T00:50:28.380Z,12.30
2024-03-12T00:51:02.958Z,9.55
2024-03-12T00:51:39.063Z,10.45
2024-03-12T00:52:14.657Z,10.43
2024-03-12T00:52:58.266Z,11.18
2024-03-12T00:53:33.593Z,11.15
2024-03-12T00:54:09.231Z,11.20
2024-03-12T00:54:44.342Z,10.10
2024-03-12T00:55:25.027Z,10.80
2024-03-12T00:56:04.648Z,9.70
2024-03-12T00:56:43.222Z,11.18
2024-03-12T00:57:18.245Z,10.13
2024-03-12T00:57:51.579Z,10.30
2024-03-12T00:58:30.031Z,11.20
2024-03-12T00:59:09.404Z,9.93
2024-03-12T00:59:48.779Z,10.38
2024-03-12T01:00:28.235Z,10.70
2024-03-12T01:01:16.712Z,11.18
2024-03-12T01:01:53.806Z,10.13
2024-03-12T01:02:32.109Z,10.43
2024-03-12T01:03:11.129Z,10.07
2024-03-12T01:03:56.586Z,10.30
2024-03-12T01:04:47.268Z,10.52
2024-03-12T01:05:34.656Z,10.30
2024-03-12T01:06:25.306Z,10.43
2024-03-12T01:07:47.268Z,10.90
2024-03-12T01:08:22.463Z,10.55
2024-03-12T01:08:54.957Z,10.52
2024-03-12T01:09:39.922Z,9.82
2024-03-12T01:10:13.614Z,10.80
2024-03-12T01:10:49.223Z,11.38
2024-03-12T01:11:27.116Z,11.02
2024-03-12T01:12:11.437Z,12.07
2024-03-12T01:12:56.035Z,10.80
2024-03-12T01:13:31.311Z,11.57
2024-03-12T01:14:09.080Z,10.63
2024-03-12T01:14:41.673Z,11.18
2024-03-12T01:15:22.344Z,10.82
2024-03-12T01:16:16.573Z,10.23
2024-03-12T01:16:55.544Z,10.30
2024-03-12T01:17:39.342Z,10.65
2024-03-12T01:18:20.783Z,13.55
2024-03-12T01:18:53.356Z,11.98
2024-03-12T01:19:29.056Z,11.05
2024-03-12T01:20:01.570Z,10.60
2024-03-12T01:20:43.061Z,11.73
2024-03-12T01:21:21.718Z,10.68
2024-03-12T01:22:00.520Z,11.20
2024-03-12T01:22:38.990Z,11.57
2024-03-12T01:23:22.452Z,11.48
2024-03-12T01:23:55.921Z,11.70
2024-03-12T01:24:32.981Z,11.88
2024-03-12T01:25:11.661Z,12.85
2024-03-12T01:25:49.603Z,10.45
2024-03-12T01:26:27.334Z,12.15
2024-03-12T01:27:08.204Z,11.90
2024-03-12T01:27:43.734Z,11.95
2024-03-12T01:28:25.269Z,10.43
2024-03-12T01:29:04.752Z,11.27
2024-03-12T01:29:47.652Z,11.10
2024-03-12T01:30:22.436Z,11.68
2024-03-12T01:30:58.055Z,11.52
2024-03-12T01:31:42.597Z,12.07
2024-03-12T01:32:19.970Z,11.65
2024-03-12T01:32:55.166Z,11.55
2024-03-12T01:33:30.592Z,11.43
2024-03-12T01:34:08.286Z,11.35
2024-03-12T01:34:49.149Z,11.30
2024-03-12T01:35:26.261Z,12.00
2024-03-12T01:36:07.106Z,12.93
2024-03-12T01:36:48.573Z,12.23
2024-03-12T01:37:25.853Z,14.20
2024-03-12T01:37:58.721Z,12.85
2024-03-12T01:38:36.266Z,13.02
2024-03-12T01:39:17.544Z,12.43
2024-03-12T01:39:57.869Z,12.35
2024-03-12T01:40:36.428Z,12.35
2024-03-12T01:41:09.732Z,12.15
2024-03-12T01:42:37.642Z,12.88
2024-03-12T01:43:17.806Z,13.00
2024-03-12T01:44:13.383Z,13.20
2024-03-12T01:44:59.124Z,13.13
2024-03-12T01:45:35.462Z,12.10
2024-03-12T01:46:17.270Z,13.23
2024-03-12T01:47:03.642Z,12.57
2024-03-12T01:47:42.768Z,13.38
2024-03-12T01:48:16.648Z,14.32
2024-03-12T01:49:04.291Z,12.93
2024-03-12T01:49:39.945Z,12.05
2024-03-12T01:50:15.164Z,12.63
2024-03-12T01:50:53.570Z,12.73
2024-03-12T01:51:40.522Z,13.38
2024-03-12T01:52:37.498Z,13.25
2024-03-12T01:53:11.418Z,12.63
2024-03-12T01:53:44.217Z,13.57
2024-03-12T01:54:37.182Z,13.85
2024-03-12T01:55:10.359Z,12.60
2024-03-12T01:55:48.542Z,12.65
2024-03-12T01:56:21.964Z,13.50
2024-03-12T01:56:59.841Z,11.75
2024-03-12T01:57:33.985Z,12.63
2024-03-12T01:58:16.136Z,12.32
2024-03-12T01:58:53.796Z,13.10
2024-03-12T01:59:31.484Z,12.68
2024-03-12T02:00:21.473Z,13.05
2024-03-12T02:00:57.191Z,12.77
2024-03-12T02:01:38.716Z,12.35
2024-03-12T02:02:29.224Z,13.05
2024-03-12T02:03:10.573Z,12.55
2024-03-12T02:03:48.653Z,11.65
2024-03-12T02:04:23.634Z,13.75
2024-03-12T02:05:14.526Z,13.07
2024-03-12T02:05:58.479Z,11.95
2024-03-12T02:06:40.147Z,13.50
2024-03-12T02:07:18.006Z,11.65
2024-03-12T02:07:52.660Z,12.70
2024-03-12T02:08:33.700Z,11.95
2024-03-12T02:09:08.651Z,12.93
2024-03-12T02:09:49.126Z,11.93
2024-03-12T02:11:11.280Z,12.07
2024-03-12T02:11:46.564Z,12.40
2024-03-12T02:12:20.111Z,12.27
2024-03-12T02:12:58.212Z,12.50
2024-03-12T02:13:30.856Z,12.25
2024-03-12T02:14:12.231Z,12.07
2024-03-12T02:14:50.320Z,11.20
2024-03-12T02:15:22.883Z,12.70
2024-03-12T02:16:05.105Z,12.52
2024-03-12T02:16:42.334Z,11.38
2024-03-12T02:17:19.457Z,11.35
2024-03-12T02:18:04.132Z,11.48
2024-03-12T02:18:41.958Z,12.63
2024-03-12T02:19:14.598Z,12.35
2024-03-12T02:19:48.755Z,10.75
2024-03-12T02:20:29.109Z,11.68
2024-03-12T02:21:09.424Z,11.45
2024-03-12T02:21:49.936Z,11.52
2024-03-12T02:22:28.373Z,10.98
2024-03-12T02:23:31.092Z,10.82
2024-03-12T02:24:09.073Z,12.30
2024-03-12T02:24:44.191Z,11.27
2024-03-12T02:25:36.695Z,10.95
2024-03-12T02:26:12.180Z,9.93
2024-03-12T02:26:57.373Z,10.35
2024-03-12T02:27:29.901Z,10.30
2024-03-12T02:28:07.975Z,9.55
2024-03-12T02:28:40.586Z,11.43
2024-03-12T02:29:21.651Z,10.77
2024-03-12T02:30:10.111Z,11.98
2024-03-12T02:30:48.561Z,10.50
2024-03-12T02:31:27.622Z,11.68
2024-03-12T02:32:14.414Z,11.13
2024-03-12T02:32:49.213Z,10.90
2024-03-12T02:33:30.605Z,10.13
2024-03-12T02:34:05.851Z,11.20
2024-03-12T02:34:40.506Z,10.35
2024-03-12T02:35:28.370Z,11.20
2024-03-12T02:36:12.184Z,10.65
2024-03-12T02:36:44.683Z,10.23
2024-03-12T02:37:17.232Z,10.57
2024-03-12T02:37:55.516Z,10.48
2024-03-12T02:38:33.716Z,10.25
2024-03-12T02:39:08.788Z,10.07
2024-03-12T02:39:41.338Z,10.80
2024-03-12T02:40:20.039Z,9.88
2024-03-12T02:40:52.510Z,10.82
2024-03-12T02:41:32.181Z,10.23
2024-03-12T02:42:09.421Z,9.52
2024-03-12T02:42:47.509Z,9.73
2024-03-12T02:43:19.974Z,11.32
2024-03-12T02:43:53.449Z,10.88
2024-03-12T02:44:31.877Z,9.95
2024-03-12T02:45:14.282Z,9.68
2024-03-12T02:45:54.280Z,11.20
2024-03-12T02:46:29.565Z,10.10
2024-03-12T02:47:13.035Z,10.65
2024-03-12T02:47:47.182Z,9.77
2024-03-12T02:48:23.333Z,10.55
2024-03-12T02:48:56.134Z,9.85
2024-03-12T02:49:34.247Z,10.00
2024-03-12T02:50:13.965Z,9.45
2024-03-12T02:50:49.219Z,9.88
2024-03-12T02:51:25.270Z,10.35
2024-03-12T02:52:00.950Z,10.07
2024-03-12T02:52:33.608Z,10.05
2024-03-12T02:53:12.326Z,10.65
2024-03-12T02:53:55.975Z,9.93
2024-03-12T02:54:31.744Z,14.25
2024-03-12T02:55:15.295Z,12.02
2024-03-12T02:55:53.550Z,11.13
2024-03-12T02:56:28.912Z,10.27
2024-03-12T02:57:09.900Z,9.70
2024-03-12T02:57:45.227Z,10.95
2024-03-12T02:58:38.320Z,12.23
2024-03-12T02:59:17.063Z,12.43
2024-03-12T02:59:52.798Z,9.73
2024-03-12T03:00:44.338Z,10.20
2024-03-12T03:01:23.518Z,10.98
2024-03-12T03:02:04.093Z,9.70
2024-03-12T03:02:50.778Z,10.70
2024-03-12T03:03:34.297Z,10.05
2024-03-12T03:04:25.137Z,11.30
2024-03-12T03:05:00.235Z,10.95
2024-03-12T03:05:35.881Z,10.60
2024-03-12T03:06:13.672Z,9.45
2024-03-12T03:06:51.856Z,10.00
2024-03-12T03:07:26.464Z,9.43
2024-03-12T03:08:17.465Z,10.30
2024-03-12T03:08:49.771Z,10.05
2024-03-12T03:09:36.537Z,10.65
2024-03-12T03:10:18.144Z,9.50
2024-03-12T03:10:56.585Z,9.70
2024-03-12T03:11:37.645Z,9.70
2024-03-12T03:12:11.137Z,10.20
2024-03-12T03:12:53.862Z,9.70
2024-03-12T03:13:28.933Z,10.13
2024-03-12T03:14:04.446Z,10.02
2024-03-12T03:14:36.947Z,10.48
2024-03-12T03:15:13.995Z,11.05
2024-03-12T03:15:49.835Z,10.45
2024-03-12T03:16:22.757Z,10.55
2024-03-12T03:17:03.731Z,10.45
2024-03-12T03:17:54.223Z,10.38
2024-03-12T03:18:31.291Z,10.30
2024-03-12T03:19:03.733Z,9.90
2024-03-12T03:19:36.355Z,10.13
2024-03-12T03:20:20.168Z,9.48
2024-03-12T03:20:55.701Z,10.30
2024-03-12T03:21:31.766Z,9.68
2024-03-12T03:22:07.410Z,10.30
2024-03-12T03:22:42.457Z,10.43
2024-03-12T03:23:29.660Z,10.07
2024-03-12T03:24:02.960Z,9.90
2024-03-12T03:24:38.772Z,10.00
2024-03-12T03:25:18.269Z,10.32
2024-03-12T03:25:50.886Z,9.65
2024-03-12T03:26:26.365Z,10.65
2024-03-12T03:26:58.800Z,9.45
2024-03-12T03:27:33.953Z,8.95
2024-03-12T03:28:06.732Z,10.20
2024-03-12T03:28:39.519Z,11.45
2024-03-12T03:29:12.785Z,11.48
2024-03-12T03:29:47.847Z,10.82
2024-03-12T03:30:22.789Z,13.60
2024-03-12T03:31:04.371Z,9.52
2024-03-12T03:31:48.746Z,10.52
2024-03-12T03:32:22.468Z,10.48
2024-03-12T03:33:01.108Z,9.98
2024-03-12T03:33:38.904Z,10.70
2024-03-12T03:34:29.643Z,10.07
2024-03-12T03:35:06.514Z,9.57
2024-03-12T03:35:56.889Z,10.02
2024-03-12T03:37:24.222Z,10.30
2024-03-12T03:38:07.248Z,9.82
2024-03-12T03:38:44.998Z,10.02
2024-03-12T03:39:20.394Z,10.10
2024-03-12T03:40:01.506Z,9.65
2024-03-12T03:40:39.936Z,10.68
2024-03-12T03:41:34.911Z,10.32
2024-03-12T03:43:16.156Z,10.25
2024-03-12T03:43:53.623Z,9.35
2024-03-12T03:44:33.150Z,9.27
2024-03-12T03:45:12.566Z,10.05
2024-03-12T03:45:48.032Z,9.95
2024-03-12T03:46:20.421Z,10.15
2024-03-12T03:46:55.441Z,10.75
2024-03-12T03:47:35.355Z,11.13
2024-03-12T03:48:13.883Z,9.48
2024-03-12T03:49:00.944Z,9.82
2024-03-12T03:49:39.111Z,9.68
2024-03-12T03:50:17.721Z,9.73
2024-03-12T03:50:52.645Z,10.15
2024-03-12T03:51:27.817Z,10.32
2024-03-12T03:52:11.360Z,10.23
2024-03-12T03:52:50.434Z,9.45
2024-03-12T03:53:28.609Z,10.65
2024-03-12T03:54:08.699Z,9.65
2024-03-12T03:54:43.588Z,9.32
2024-03-12T03:55:24.735Z,10.93
2024-03-12T03:56:17.194Z,9.10
2024-03-12T03:56:55.081Z,9.70
2024-03-12T03:57:30.554Z,10.95
2024-03-12T03:58:02.975Z,9.73
2024-03-12T03:58:38.328Z,11.50
2024-03-12T03:59:17.639Z,11.05
2024-03-12T03:59:58.485Z,11.05
2024-03-12T04:00:35.169Z,11.93
2024-03-12T04:01:09.760Z,11.20
2024-03-12T04:01:45.214Z,8.50
2024-03-12T04:02:25.056Z,9.63
2024-03-12T04:03:08.040Z,9.02
2024-03-12T04:03:53.205Z,10.48
2024-03-12T04:04:28.910Z,9.90
2024-03-12T04:05:11.901Z,10.73
2024-03-12T04:06:27.407Z,11.32
2024-03-12T04:07:06.489Z,11.07
2024-03-12T04:08:03.960Z,10.32
2024-03-12T04:08:39.675Z,10.32
2024-03-12T04:09:17.716Z,9.15
2024-03-12T04:10:02.533Z,10.00
2024-03-12T04:11:36.311Z,9.57
2024-03-12T04:12:26.546Z,10.10
2024-03-12T04:13:01.784Z,10.02
2024-03-12T04:13:40.811Z,10.05
2024-03-12T04:14:14.095Z,9.50
2024-03-12T04:15:01.662Z,11.98
2024-03-12T04:15:36.507Z,12.55
2024-03-12T04:16:12.068Z,10.45
2024-03-12T04:16:45.042Z,10.68
2024-03-12T04:17:23.464Z,11.32
2024-03-12T04:18:04.653Z,11.35
2024-03-12T04:18:45.577Z,11.18
2024-03-12T04:19:20.862Z,11.00
2024-03-12T04:20:04.538Z,10.73
2024-03-12T04:20:42.758Z,10.98
2024-03-12T04:21:22.106Z,11.90
2024-03-12T04:21:57.123Z,12.13
2024-03-12T04:22:30.063Z,12.55
2024-03-12T04:23:02.828Z,12.25
2024-03-12T04:23:35.370Z,11.45
2024-03-12T04:24:12.364Z,10.23
2024-03-12T04:24:50.928Z,11.60
2024-03-12T04:25:38.132Z,12.25
2024-03-12T04:26:13.659Z,12.60
2024-03-12T04:26:57.321Z,12.02
2024-03-12T04:27:29.813Z,12.90
2024-03-12T04:28:18.282Z,11.65
2024-03-12T04:29:05.065Z,12.65
2024-03-12T04:29:58.111Z,11.18
2024-03-12T04:30:50.339Z,12.77
2024-03-12T04:31:32.992Z,12.80
2024-03-12T04:32:08.376Z,11.85
2024-03-12T04:32:44.799Z,12.88
2024-03-12T04:33:19.203Z,11.82
2024-03-12T04:33:54.360Z,13.20
2024-03-12T04:34:31.746Z,12.38
2024-03-12T04:35:24.626Z,11.68
2024-03-12T04:35:57.700Z,11.88
2024-03-12T04:36:30.101Z,11.45
2024-03-12T04:37:05.742Z,12.35
2024-03-12T04:37:46.711Z,11.55
2024-03-12T04:38:27.121Z,10.32
2024-03-12T04:39:39.112Z,12.65
2024-03-12T04:40:14.569Z,12.52
2024-03-12T04:40:51.438Z,11.15
2024-03-12T04:41:34.764Z,12.27
2024-03-12T04:42:46.928Z,11.88
2024-03-12T04:43:28.114Z,10.85
2024-03-12T04:44:03.760Z,11.07
2024-03-12T04:44:41.648Z,10.73
2024-03-12T04:45:28.501Z,12.85
2024-03-12T04:46:16.493Z,12.13
2024-03-12T04:46:58.218Z,11.35
2024-03-12T04:47:33.099Z,11.50
2024-03-12T04:48:14.592Z,10.80
2024-03-12T04:48:55.254Z,10.57
2024-03-12T04:49:38.113Z,10.57
2024-03-12T04:50:16.081Z,11.35
2024-03-12T04:50:54.769Z,10.75
2024-03-12T04:51:42.576Z,11.68
2024-03-12T04:52:17.854Z,11.07
2024-03-12T04:53:02.390Z,11.63
2024-03-12T04:53:40.596Z,12.60
2024-03-12T04:54:24.135Z,11.75
2024-03-12T04:55:06.875Z,11.23
2024-03-12T04:55:49.046Z,14.23
2024-03-12T04:56:24.040Z,11.43
2024-03-12T04:56:59.288Z,11.57
2024-03-12T04:57:47.223Z,12.48
2024-03-12T04:58:30.838Z,10.98
2024-03-12T04:59:12.212Z,11.90
2024-03-12T04:59:47.683Z,10.68
2024-03-12T05:00:25.739Z,11.77
2024-03-12T05:01:07.371Z,11.32
2024-03-12T05:01:40.215Z,11.45
2024-03-12T05:02:27.772Z,11.00
2024-03-12T05:03:02.996Z,12.27
2024-03-12T05:03:36.006Z,11.80
2024-03-12T05:04:22.500Z,11.40
2024-03-12T05:05:01.456Z,11.93
2024-03-12T05:05:46.591Z,11.60
2024-03-12T05:06:23.757Z,13.15
2024-03-12T05:06:56.172Z,11.60
2024-03-12T05:07:40.002Z,10.90
2024-03-12T05:08:12.407Z,12.00
2024-03-12T05:08:47.836Z,13.20
2024-03-12T05:09:24.649Z,13.40
2024-03-12T05:10:01.066Z,12.30
2024-03-12T05:10:36.360Z,12.65
2024-03-12T05:11:11.753Z,10.65
2024-03-12T05:11:50.061Z,12.73
2024-03-12T05:12:28.139Z,11.52
2024-03-12T05:13:15.372Z,10.95
2024-03-12T05:13:53.938Z,11.20
2024-03-12T05:14:29.394Z,11.98
2024-03-12T05:15:08.115Z,13.82
2024-03-12T05:16:10.198Z,11.55
2024-03-12T05:16:45.507Z,13.95
2024-03-12T05:17:19.753Z,13.13
2024-03-12T05:17:54.653Z,12.07
2024-03-12T05:18:29.679Z,12.75
2024-03-12T05:19:02.020Z,13.98
2024-03-12T05:19:36.938Z,13.00
2024-03-12T05:20:30.441Z,12.70
2024-03-12T05:21:06.085Z,12.32
2024-03-12T05:21:44.043Z,13.40
2024-03-12T05:22:28.163Z,12.98
2024-03-12T05:23:05.308Z,12.50
2024-03-12T05:23:37.670Z,12.68
2024-03-12T05:24:21.352Z,14.18
2024-03-12T05:24:57.912Z,12.35
2024-03-12T05:25:41.068Z,11.75
2024-03-12T05:26:19.625Z,12.20
2024-03-12T05:26:53.598Z,14.63
2024-03-12T05:27:39.337Z,15.77
2024-03-12T05:28:17.445Z,12.18
2024-03-12T05:28:55.855Z,15.55
2024-03-12T05:29:37.969Z,13.35
2024-03-12T05:30:25.701Z,13.13
2024-03-12T05:31:09.218Z,12.35
2024-03-12T05:32:30.563Z,14.05
2024-03-12T05:33:11.198Z,15.30
2024-03-12T05:33:52.084Z,13.60
2024-03-12T05:34:36.619Z,13.70
2024-03-12T05:35:35.522Z,12.63
2024-03-12T05:36:11.101Z,11.68
2024-03-12T05:36:50.172Z,11.80
2024-03-12T05:38:02.932Z,12.95
2024-03-12T05:38:46.181Z,12.63
2024-03-12T05:39:25.951Z,12.10
2024-03-12T05:40:21.418Z,12.32
2024-03-12T05:41:16.150Z,11.98
2024-03-12T05:42:10.748Z,12.40
2024-03-12T05:43:10.043Z,11.05
2024-03-12T05:43:57.748Z,11.73
2024-03-12T05:44:51.032Z,12.25
2024-03-12T05:45:38.467Z,10.30
2024-03-12T05:46:28.732Z,12.63
2024-03-12T05:47:30.755Z,13.70
2024-03-12T05:48:12.089Z,13.82
2024-03-12T05:48:51.811Z,13.30
2024-03-12T05:49:27.641Z,11.98
2024-03-12T05:50:23.958Z,12.75
2024-03-12T05:51:00.486Z,14.90
2024-03-12T05:51:36.628Z,13.05
2024-03-12T05:52:27.102Z,13.15
2024-03-12T05:53:07.733Z,12.68
2024-03-12T05:53:43.226Z,13.45
2024-03-12T05:54:27.419Z,13.48
2024-03-12T05:55:02.910Z,12.48
2024-03-12T05:55:47.648Z,12.73
2024-03-12T05:56:21.120Z,13.57
2024-03-12T05:56:56.751Z,13.10
2024-03-12T05:57:35.057Z,12.15
2024-03-12T05:58:19.961Z,13.80
2024-03-12T05:59:03.393Z,14.55
2024-03-12T05:59:36.089Z,14.70
2024-03-12T06:00:15.551Z,15.10
2024-03-12T06:00:49.129Z,12.65
2024-03-12T06:01:36.371Z,22.13
2024-03-12T06:02:10.117Z,11.50
2024-03-12T06:02:51.082Z,13.57
2024-03-12T06:03:38.848Z,11.38
2024-03-12T06:04:11.340Z,12.60
2024-03-12T06:04:49.607Z,13.65
2024-03-12T06:05:42.086Z,12.40
2024-03-12T06:06:14.799Z,12.27
2024-03-12T06:06:50.578Z,13.27
2024-03-12T06:07:28.512Z,11.95
2024-03-12T06:08:07.452Z,12.10
2024-03-12T06:08:55.068Z,11.95
2024-03-12T06:09:30.265Z,13.35
2024-03-12T06:10:14.326Z,14.65
2024-03-12T06:10:54.938Z,14.13
2024-03-12T06:11:29.996Z,12.15
2024-03-12T06:12:03.177Z,12.70
2024-03-12T06:12:38.815Z,14.43
2024-03-12T06:13:21.416Z,12.32
2024-03-12T06:14:12.973Z,12.02
2024-03-12T06:14:57.146Z,11.13
2024-03-12T06:15:33.363Z,12.00
2024-03-12T06:16:29.427Z,11.05
2024-03-12T06:17:08.735Z,10.80
2024-03-12T06:17:47.778Z,11.20
2024-03-12T06:18:24.330Z,12.38
2024-03-12T06:19:01.539Z,12.93
2024-03-12T06:19:36.975Z,11.48
2024-03-12T06:20:18.300Z,11.15
2024-03-12T06:20:53.468Z,11.35
2024-03-12T06:21:31.950Z,11.38
2024-03-12T06:22:09.835Z,12.00
2024-03-12T06:22:45.447Z,11.73
2024-03-12T06:23:27.231Z,10.73
2024-03-12T06:24:20.350Z,11.73
2024-03-12T06:25:07.108Z,10.13
2024-03-12T06:25:43.360Z,10.85
2024-03-12T06:26:20.075Z,11.23
2024-03-12T06:27:07.483Z,11.45
2024-03-12T06:27:40.188Z,10.85
2024-03-12T06:28:16.096Z,12.77
2024-03-12T06:28:51.365Z,12.52
2024-03-12T06:29:26.401Z,12.05
2024-03-12T06:30:01.894Z,10.80
2024-03-12T06:30:39.994Z,10.65
2024-03-12T06:31:13.396Z,11.02
2024-03-12T06:32:04.443Z,11.70
2024-03-12T06:32:45.279Z,12.65
2024-03-12T06:33:24.654Z,12.25
2024-03-12T06:34:01.051Z,11.93
2024-03-12T06:34:34.199Z,14.60
2024-03-12T06:35:13.189Z,11.55
2024-03-12T06:36:04.249Z,12.50
2024-03-12T06:36:45.117Z,12.73
2024-03-12T06:37:23.479Z,11.45
2024-03-12T06:38:00.013Z,11.93
2024-03-12T06:38:35.872Z,12.65
2024-03-12T06:39:19.225Z,12.60
2024-03-12T06:40:33.174Z,12.25
2024-03-12T06:41:19.775Z,13.20
2024-03-12T06:41:54.850Z,12.07
2024-03-12T06:43:19.963Z,11.65
2024-03-12T06:43:57.795Z,12.32
2024-03-12T06:44:36.429Z,11.75
2024-03-12T06:45:14.671Z,11.23
2024-03-12T06:46:05.004Z,12.15
2024-03-12T06:46:46.361Z,13.60
2024-03-12T06:47:25.884Z,11.15
2024-03-12T06:48:08.095Z,13.93
2024-03-12T06:48:44.549Z,10.77
2024-03-12T06:49:28.574Z,11.43
2024-03-12T06:50:12.341Z,12.30
2024-03-12T06:50:52.159Z,10.90
2024-03-12T06:51:34.012Z,12.80
2024-03-12T06:52:24.464Z,11.35
2024-03-12T06:53:03.819Z,11.00
2024-03-12T06:53:38.917Z,11.63
2024-03-12T06:54:17.336Z,11.10
2024-03-12T06:54:52.273Z,10.90
2024-03-12T06:55:34.995Z,11.38
2024-03-12T06:56:08.548Z,11.75
2024-03-12T06:56:47.885Z,12.25
2024-03-12T06:57:32.094Z,12.20
2024-03-12T06:58:20.617Z,13.57
2024-03-12T06:58:58.830Z,12.45
2024-03-12T07:00:38.388Z,11.98
2024-03-12T07:01:26.786Z,13.13
2024-03-12T07:01:59.296Z,14.82
2024-03-12T07:02:39.722Z,13.13
2024-03-12T07:04:02.963Z,11.15
2024-03-12T07:04:38.634Z,11.52
2024-03-12T07:05:19.950Z,12.00
2024-03-12T07:06:00.448Z,13.27
2024-03-12T07:07:29.222Z,11.73
2024-03-12T07:08:15.714Z,12.65
2024-03-12T07:10:20.716Z,13.45
2024-03-12T07:11:06.200Z,13.55
2024-03-12T07:11:46.397Z,12.30
2024-03-12T07:12:21.618Z,12.98
2024-03-12T07:12:55.179Z,11.90
2024-03-12T07:13:41.650Z,14.43
2024-03-12T07:14:33.956Z,12.15
2024-03-12T07:15:15.869Z,13.43
2024-03-12T07:15:59.532Z,13.43
2024-03-12T07:16:35.144Z,12.13
2024-03-12T07:17:09.310Z,13.10
2024-03-12T07:17:44.408Z,13.95
2024-03-12T07:18:27.692Z,11.27
2024-03-12T07:19:06.336Z,14.93
2024-03-12T07:19:44.882Z,13.38
2024-03-12T07:20:22.900Z,12.70
2024-03-12T07:21:00.890Z,12.52
2024-03-12T07:21:42.940Z,12.45
2024-03-12T07:22:26.511Z,12.10
2024-03-12T07:23:10.590Z,13.00
2024-03-12T07:23:45.678Z,14.18
2024-03-12T07:24:18.908Z,12.07
2024-03-12T07:24:59.760Z,12.52
2024-03-12T07:25:37.992Z,12.65
2024-03-12T07:26:13.212Z,12.85
2024-03-12T07:27:00.927Z,12.23
2024-03-12T07:27:39.375Z,11.18
2024-03-12T07:28:24.885Z,12.10
2024-03-12T07:29:08.377Z,12.95
2024-03-12T07:29:45.023Z,11.88
2024-03-12T07:30:22.771Z,12.27
2024-03-12T07:31:07.331Z,12.68
2024-03-12T07:31:43.130Z,13.27
2024-03-12T07:32:20.955Z,15.30
2024-03-12T07:32:59.763Z,13.88
2024-03-12T07:33:38.817Z,13.80
2024-03-12T07:34:11.426Z,13.07
2024-03-12T07:34:53.611Z,14.52
2024-03-12T07:35:26.066Z,13.07
2024-03-12T07:36:22.428Z,13.52
2024-03-12T07:37:09.159Z,14.02
2024-03-12T07:37:47.360Z,14.30
2024-03-12T07:38:19.793Z,12.90
2024-03-12T07:38:55.045Z,12.30
2024-03-12T07:39:36.924Z,15.30
2024-03-12T07:40:16.847Z,15.90
2024-03-12T07:41:01.981Z,12.55
2024-03-12T07:42:02.008Z,13.20
2024-03-12T07:42:51.147Z,14.30
2024-03-12T07:43:31.320Z,13.63
2024-03-12T07:44:09.368Z,14.30
2024-03-12T07:44:55.292Z,13.80
2024-03-12T07:45:38.018Z,14.27
2024-03-12T07:46:13.124Z,12.55
2024-03-12T07:46:45.683Z,15.00
2024-03-12T07:47:18.913Z,14.68
2024-03-12T07:47:57.873Z,14.43
2024-03-12T07:48:41.495Z,13.43
2024-03-12T07:49:22.698Z,12.63
2024-03-12T07:50:01.400Z,14.20
2024-03-12T07:50:42.147Z,15.85
2024-03-12T07:51:20.753Z,13.93
2024-03-12T07:52:01.862Z,15.93
2024-03-12T07:52:34.140Z,13.88
2024-03-12T07:53:12.232Z,14.38
2024-03-12T07:54:00.985Z,13.60
2024-03-12T07:54:33.355Z,13.80
2024-03-12T07:55:20.856Z,15.63
2024-03-12T07:56:18.907Z,15.45
2024-03-12T07:56:56.980Z,16.55
2024-03-12T07:58:47.765Z,14.90
2024-03-12T07:59:41.497Z,15.52
2024-03-12T08:00:37.815Z,17.08
2024-03-12T08:01:22.033Z,17.58
2024-03-12T08:02:01.694Z,17.42
2024-03-12T08:02:43.635Z,16.48
2024-03-12T08:03:33.748Z,15.85
2024-03-12T08:04:06.200Z,14.20
2024-03-12T08:04:48.601Z,15.18
2024-03-12T08:05:21.008Z,16.33
2024-03-12T08:05:55.949Z,17.17
2024-03-12T08:06:31.328Z,15.85
2024-03-12T08:07:12.292Z,15.82
2024-03-12T08:07:53.846Z,14.57
2024-03-12T08:08:29.533Z,14.65
2024-03-12T08:09:02.100Z,15.57
2024-03-12T08:09:34.546Z,19.52
2024-03-12T08:10:16.465Z,19.42
2024-03-12T08:10:58.891Z,19.48
2024-03-12T08:11:40.434Z,18.73
2024-03-12T08:12:17.605Z,17.17
2024-03-12T08:13:01.312Z,16.80
2024-03-12T08:13:40.229Z,17.00
2024-03-12T08:14:18.514Z,18.10
2024-03-12T08:14:50.768Z,18.58
2024-03-12T08:15:48.930Z,16.35
2024-03-12T08:16:22.500Z,16.23
2024-03-12T08:17:06.779Z,19.90
2024-03-12T08:17:48.351Z,15.38
2024-03-12T08:18:26.959Z,15.52
2024-03-12T08:19:02.672Z,16.90
2024-03-12T08:19:35.353Z,14.60
2024-03-12T08:20:36.610Z,15.50
2024-03-12T08:21:17.874Z,13.80
2024-03-12T08:21:53.500Z,15.35
2024-03-12T08:22:37.758Z,14.60
2024-03-12T08:23:16.031Z,14.82
2024-03-12T08:23:55.293Z,16.00
2024-03-12T08:24:36.314Z,14.63
2024-03-12T08:25:12.761Z,14.93
2024-03-12T08:26:01.261Z,14.18
2024-03-12T08:26:40.512Z,14.20
2024-03-12T08:27:22.255Z,14.88
2024-03-12T08:28:01.792Z,14.23
2024-03-12T08:28:42.091Z,14.63
2024-03-12T08:29:18.187Z,15.20
2024-03-12T08:30:05.201Z,14.40
2024-03-12T08:30:57.566Z,14.75
2024-03-12T08:31:55.684Z,14.43
2024-03-12T08:32:32.850Z,14.60
2024-03-12T08:33:11.170Z,14.02
2024-03-12T08:33:48.839Z,14.50
2024-03-12T08:34:30.152Z,14.15
2024-03-12T08:35:05.336Z,14.68
2024-03-12T08:35:37.829Z,14.43
2024-03-12T08:36:18.644Z,14.50
2024-03-12T08:37:13.521Z,15.27
2024-03-12T08:37:55.149Z,15.90
2024-03-12T08:38:56.501Z,15.02
2024-03-12T08:39:32.540Z,13.98
2024-03-12T08:40:15.689Z,14.98
2024-03-12T08:40:51.365Z,15.90
2024-03-12T08:41:35.390Z,12.98
2024-03-12T08:42:16.429Z,13.57
2024-03-12T08:43:10.505Z,14.43
2024-03-12T08:43:52.641Z,14.85
2024-03-12T08:44:27.978Z,14.38
2024-03-12T08:45:10.154Z,15.07
2024-03-12T08:45:47.984Z,13.93
2024-03-12T08:46:32.457Z,14.60
2024-03-12T08:47:08.694Z,15.93
2024-03-12T08:47:48.617Z,14.57
2024-03-12T08:48:22.939Z,14.55
2024-03-12T08:49:04.466Z,15.68
2024-03-12T08:49:39.262Z,15.05
2024-03-12T08:50:11.878Z,15.57
2024-03-12T08:50:44.653Z,16.10
2024-03-12T08:51:25.888Z,14.63
2024-03-12T08:52:04.811Z,15.13
2024-03-12T08:53:00.912Z,15.38